Main page
METAR-TAF:

METAR-TAF

Airports :

Mthatha, South Africa

Mthatha Airport

latitude: 31-32-47S, longitude: 028-40-31E, elevation: 740 m

Current weather observation

The report was made 43 minutes ago, at 07:00 UTC
Calm wind
Temperature 18°C
Humidity 68%
Pressure 1018 hPa
Visibility 10 km or more
no clouds below 1500 m and no cumulonimbus

METAR: FAUT 230700Z 00000KT CAVOK 18/12 Q1018

Time: 09:43 (07:43 UTC)

Forecast

The report was made 1 hour and 43 minutes ago, at 06:00 UTC
Forecast valid from 23 at 07 UTC to 23 at 18 UTC
Wind 4 kt from the North/Northwest
Visibility 10 km or more
no clouds below 1500 m and no cumulonimbus
Temporary
from 23 at 11 UTC to 23 at 15 UTC
Wind 3 kt from variable directions

TAF: FAUT 230600Z 2307/2318 33004KT CAVOK TEMPO 2311/2315 VRB03KT TX30/2312Z TN18/2318Z

Weather observations and forecasts of more than 4000 airports (METAR and TAF reports).

The available stations are represented by yellow and red dots on the map.

Hover mouse over dot to see the name of the station.

Then click to see weather observations and forecasts.

To change the map : click on the green buttons with a black cross to zoom in, on the green button with a dash to zoom out, or on the green arrows for adjacent maps.


METAR-TAF: